Time;durP1;ratioP1;P1;durP2;ratioP2;P2;SDS_P1;SDS_P2;PMS_P1;PMS_P2;Temp;Humidity;BMP_temperature;BMP_pressure;BME280_temperature;BME280_humidity;BME280_pressure;Samples;Min_cycle;Max_cycle;Signal;HPM_P1;HPM_P2
2021/01/04 00:00:17;;;;;;;14.43;4.57;;;;;;;5.51;76.90;101500.94;3987462;32;15024342;-74
2021/01/04 00:22:29;;;;;;;13.15;3.97;;;;;;;5.57;76.47;101495.78;3990016;32;15021486;-73
2021/01/04 00:32:55;;;;;;;11.27;3.22;;;;;;;5.57;76.26;101499.38;3987775;32;15023172;-75
2021/01/04 00:35:25;;;;;;;9.85;2.67;;;;;;;5.17;77.24;101495.81;4440163;32;20026;-73
2021/01/04 00:41:28;;;;;;;9.50;2.95;;;;;;;5.34;77.36;101486.81;3986175;32;15023841;-73
2021/01/04 00:43:57;;;;;;;9.00;2.67;;;;;;;5.28;76.66;101489.16;4434130;32;20045;-73
2021/01/04 00:46:31;;;;;;;11.88;2.60;;;;;;;5.35;77.00;101482.84;4443872;32;20018;-76
2021/01/04 00:49:09;;;;;;;6.70;2.10;;;;;;;5.36;76.87;101487.22;4434750;32;20530;-73
2021/01/04 00:51:45;;;;;;;14.38;2.80;;;;;;;5.38;76.18;101482.06;4439787;32;20026;-74
2021/01/04 01:00:17;;;;;;;4.78;2.37;;;;;;;5.85;75.24;101496.03;3983481;32;15023754;-74
2021/01/04 01:05:59;;;;;;;11.50;3.28;;;;;;;5.78;75.73;101487.56;3991503;32;15022130;-74
2021/01/04 01:08:30;;;;;;;9.07;2.65;;;;;;;5.78;75.73;101487.56;4436484;32;20036;-74
2021/01/04 01:11:02;;;;;;;10.30;2.40;;;;;;;5.38;76.82;101487.66;4439511;32;20042;-74
2021/01/04 01:16:30;;;;;;;8.85;2.25;;;;;;;5.32;76.49;101483.59;4012450;31;15015619;-76
2021/01/04 01:19:09;;;;;;;8.75;2.72;;;;;;;5.34;75.92;101500.78;4470110;32;20060;-76
2021/01/04 01:21:36;;;;;;;6.37;2.33;;;;;;;5.34;75.91;101498.00;4475065;32;20068;-76
2021/01/04 01:24:04;;;;;;;8.30;1.83;;;;;;;5.29;76.03;101501.94;4471332;32;20037;-74
2021/01/04 01:29:33;;;;;;;9.45;2.08;;;;;;;5.62;75.25;101495.44;3986289;32;15022265;-76
2021/01/04 01:35:23;;;;;;;10.93;2.20;;;;;;;5.53;75.50;101497.28;3982520;32;15024010;-74
2021/01/04 01:44:01;;;;;;;7.55;2.50;;;;;;;5.53;75.70;101501.31;3991189;32;15021739;-75
2021/01/04 02:08:26;;;;;;;7.07;2.17;;;;;;;5.86;74.79;101509.59;3985579;32;15022410;-75
2021/01/04 02:10:57;;;;;;;14.48;3.08;;;;;;;5.44;75.82;101509.25;4436989;32;20045;-74
2021/01/04 02:16:13;;;;;;;8.65;1.90;;;;;;;5.49;75.66;101503.28;3989473;32;15024331;-74
2021/01/04 02:27:03;;;;;;;8.68;2.10;;;;;;;5.98;74.58;101514.87;4011822;31;15013376;-75
2021/01/04 02:29:29;;;;;;;12.00;2.85;;;;;;;5.98;74.58;101514.87;4472244;32;20036;-75
2021/01/04 02:31:59;;;;;;;8.55;2.50;;;;;;;5.54;75.55;101514.13;4455121;32;20057;-74
2021/01/04 02:34:32;;;;;;;6.43;2.05;;;;;;;5.50;75.06;101524.44;4443832;32;20049;-76
2021/01/04 02:36:59;;;;;;;9.95;2.37;;;;;;;5.59;75.56;101508.16;4457250;32;20362;-76
2021/01/04 02:45:05;;;;;;;10.77;2.78;;;;;;;6.19;74.32;101533.00;3988311;32;15021738;-75
2021/01/04 02:59:28;;;;;;;13.82;3.08;;;;;;;5.63;77.08;101505.41;3986397;32;15022672;-73
2021/01/04 03:02:02;;;;;;;10.10;2.83;;;;;;;5.54;77.54;101516.91;4442811;32;20055;-72
2021/01/04 03:04:29;;;;;;;8.93;2.92;;;;;;;5.45;77.27;101499.69;4441028;32;20033;-72
2021/01/04 03:09:49;;;;;;;9.75;2.35;;;;;;;5.98;77.39;101508.50;3986607;32;15154544;-72
2021/01/04 03:12:19;;;;;;;8.23;2.12;;;;;;;5.98;77.39;101508.50;4443183;32;20045;-73
2021/01/04 03:14:58;;;;;;;11.43;2.60;;;;;;;5.36;76.99;101503.97;4437068;32;20482;-73
2021/01/04 03:20:06;;;;;;;6.00;1.70;;;;;;;5.72;77.14;101515.06;3960841;32;15722542;-72
2021/01/04 03:22:32;;;;;;;9.63;2.30;;;;;;;5.72;77.14;101515.06;4434599;32;20429;-75
2021/01/04 03:24:57;;;;;;;7.65;2.03;;;;;;;5.36;78.24;101507.56;4436374;32;20060;-74
2021/01/04 03:27:31;;;;;;;5.78;1.77;;;;;;;5.34;78.18;101509.94;4440253;32;20053;-74
2021/01/04 03:29:57;;;;;;;4.07;1.60;;;;;;;5.42;77.73;101505.22;4433268;32;20062;-74
2021/01/04 03:32:23;;;;;;;10.65;1.80;;;;;;;5.41;77.54;101501.66;4437429;32;20029;-74
2021/01/04 03:34:49;;;;;;;8.88;2.30;;;;;;;5.42;77.76;101502.44;4423478;32;20444;-73
2021/01/04 03:37:16;;;;;;;8.18;2.00;;;;;;;5.48;77.49;101492.50;4426836;32;20037;-74
2021/01/04 03:39:43;;;;;;;7.25;2.45;;;;;;;5.48;77.33;101498.91;4418332;32;20050;-74
2021/01/04 03:42:11;;;;;;;5.95;1.77;;;;;;;5.50;77.45;101502.09;4427937;32;20042;-73
2021/01/04 03:44:37;;;;;;;4.35;1.85;;;;;;;5.45;77.20;101502.47;4428846;32;20065;-72
2021/01/04 03:47:02;;;;;;;8.95;2.05;;;;;;;5.46;77.45;101506.06;4426419;32;20076;-73
2021/01/04 03:49:28;;;;;;;10.55;2.47;;;;;;;5.29;76.48;101501.94;4421836;32;20580;-72
2021/01/04 03:51:57;;;;;;;7.82;2.12;;;;;;;5.39;77.16;101509.59;4426816;32;20128;-73
2021/01/04 03:54:24;;;;;;;8.10;1.90;;;;;;;5.42;77.12;101503.25;4425791;32;20029;-74
2021/01/04 03:56:50;;;;;;;7.53;2.40;;;;;;;5.45;77.45;101499.69;4427602;32;20469;-72
2021/01/04 03:59:16;;;;;;;5.78;1.70;;;;;;;5.46;77.17;101512.44;4426288;32;20038;-72
2021/01/04 04:01:57;;;;;;;5.25;2.03;;;;;;;5.53;77.38;101506.12;4428308;32;20051;-74
2021/01/04 04:04:24;;;;;;;7.32;2.25;;;;;;;5.55;77.05;101512.91;4428142;32;20445;-73
2021/01/04 04:06:50;;;;;;;7.10;1.60;;;;;;;5.47;75.90;101513.25;4424640;32;20079;-73
2021/01/04 04:09:17;;;;;;;4.25;1.60;;;;;;;5.46;76.68;101506.84;4427623;32;20034;-73
2021/01/04 04:11:44;;;;;;;7.85;1.85;;;;;;;5.45;77.08;101499.69;4418201;32;20325;-72
2021/01/04 04:14:10;;;;;;;8.30;1.92;;;;;;;5.41;76.97;101498.84;4430205;32;20033;-72
2021/01/04 04:16:37;;;;;;;9.93;2.00;;;;;;;5.48;76.85;101498.91;4421208;32;20079;-74
2021/01/04 04:19:04;;;;;;;9.73;2.50;;;;;;;5.54;76.38;101488.19;4422894;32;20398;-73
2021/01/04 04:21:29;;;;;;;4.93;2.08;;;;;;;5.54;76.87;101493.75;4420178;32;20045;-73
2021/01/04 04:23:55;;;;;;;10.43;2.15;;;;;;;5.49;76.74;101492.13;4416536;32;20363;-73
2021/01/04 04:26:24;;;;;;;13.70;2.75;;;;;;;5.56;76.78;101492.19;4424342;32;20433;-74
2021/01/04 04:28:49;;;;;;;9.80;2.47;;;;;;;5.64;76.93;101493.84;4420579;32;20128;-73
2021/01/04 04:31:15;;;;;;;12.77;3.35;;;;;;;5.63;76.91;101497.84;4413170;32;20357;-74
2021/01/04 04:33:43;;;;;;;10.10;2.58;;;;;;;5.63;76.71;101491.44;4409488;32;20095;-72
2021/01/04 04:36:10;;;;;;;10.32;2.45;;;;;;;5.50;76.27;101487.34;4414082;32;20081;-75
2021/01/04 04:38:36;;;;;;;8.40;2.10;;;;;;;5.60;76.71;101500.59;4411902;32;20411;-74
2021/01/04 04:41:02;;;;;;;10.18;2.08;;;;;;;5.53;76.49;101495.75;4414263;32;20038;-72
2021/01/04 04:46:11;;;;;;;10.07;2.17;;;;;;;6.05;75.50;101514.16;3960742;32;15729543;-74
2021/01/04 04:48:49;;;;;;;9.95;2.80;;;;;;;6.05;75.50;101514.16;4432676;32;20053;-75
2021/01/04 04:51:32;;;;;;;7.43;2.58;;;;;;;5.60;76.20;101503.38;4436523;32;20029;-75
2021/01/04 04:54:29;;;;;;;11.23;2.33;;;;;;;5.64;76.06;101507.81;4440983;32;20057;-75
2021/01/04 04:59:51;;;;;;;9.60;1.92;;;;;;;5.62;75.83;101504.59;3990834;32;15025478;-75
2021/01/04 05:05:25;;;;;;;12.73;2.37;;;;;;;5.66;75.82;101501.84;3985110;32;15023405;-74
2021/01/04 05:10:36;;;;;;;6.30;1.83;;;;;;;5.72;76.66;101506.69;3983638;32;15025271;-74
2021/01/04 05:16:12;;;;;;;9.32;1.67;;;;;;;5.73;77.32;101515.84;3989508;32;15025771;-73
2021/01/04 05:27:00;;;;;;;12.98;2.10;;;;;;;5.78;76.38;101518.31;3989495;32;15026629;-74
2021/01/04 05:32:43;;;;;;;8.70;1.75;;;;;;;5.53;77.48;101518.06;3986390;32;15024699;-75
2021/01/04 05:35:13;;;;;;;6.60;1.60;;;;;;;5.51;77.86;101508.50;4433584;32;20186;-74
2021/01/04 05:48:39;;;;;;;11.10;2.55;;;;;;;5.62;77.89;101518.56;3993853;32;15027890;-75
2021/01/04 05:53:45;;;;;;;8.75;2.10;;;;;;;6.07;77.33;101518.16;3991030;32;15027423;-73
2021/01/04 05:56:18;;;;;;;6.40;2.22;;;;;;;6.07;77.33;101518.16;4443976;32;20495;-75
2021/01/04 05:58:44;;;;;;;9.65;3.17;;;;;;;5.51;77.52;101519.66;4435035;32;20069;-75
2021/01/04 06:01:14;;;;;;;9.77;2.92;;;;;;;5.49;78.18;101520.03;4438333;32;20033;-74
2021/01/04 06:03:39;;;;;;;13.10;3.30;;;;;;;5.56;78.60;101525.69;4438085;32;20069;-72
2021/01/04 06:06:13;;;;;;;11.18;2.95;;;;;;;5.59;78.83;101529.72;4439882;32;20025;-75
2021/01/04 06:08:39;;;;;;;12.45;2.60;;;;;;;5.70;78.97;101533.38;4436751;32;20418;-73
2021/01/04 06:13:45;;;;;;;12.98;2.30;;;;;;;5.75;78.20;101528.25;3984728;32;15026805;-74
2021/01/04 06:16:14;;;;;;;12.00;2.10;;;;;;;5.69;78.22;101538.19;4443294;32;20037;-74
2021/01/04 06:18:45;;;;;;;7.50;2.08;;;;;;;5.64;78.10;101537.72;4435935;32;20457;-73
2021/01/04 06:21:22;;;;;;;10.45;2.85;;;;;;;5.56;78.30;101539.66;4436591;32;20088;-73
2021/01/04 06:23:49;;;;;;;8.68;2.72;;;;;;;5.58;78.40;101528.91;4436222;32;20046;-73
2021/01/04 06:26:20;;;;;;;9.68;2.15;;;;;;;5.61;78.31;101532.91;4435376;32;20052;-74
2021/01/04 06:36:58;;;;;;;13.77;2.97;;;;;;;6.25;76.49;101528.63;3991795;32;15023606;-73
2021/01/04 06:39:29;;;;;;;12.50;3.35;;;;;;;6.25;76.49;101528.63;4443293;32;20415;-75
2021/01/04 06:42:06;;;;;;;9.10;2.60;;;;;;;5.83;77.59;101529.16;4439663;32;20042;-73
2021/01/04 06:44:31;;;;;;;15.38;3.40;;;;;;;5.77;77.51;101542.63;4444409;32;20034;-74
2021/01/04 06:49:46;;;;;;;12.20;2.55;;;;;;;6.28;77.29;101551.00;3974105;32;15022856;-75
2021/01/04 07:03:44;;;;;;;14.75;2.35;;;;;;;5.74;77.48;101546.19;3993953;32;15027458;-75
2021/01/04 07:12:01;;;;;;;11.35;2.60;;;;;;;6.04;78.12;101551.63;3984421;32;15025615;-73
2021/01/04 07:17:39;;;;;;;8.32;2.30;;;;;;;5.65;79.09;101548.50;3990120;32;15026723;-74
2021/01/04 07:33:58;;;;;;;12.43;2.92;;;;;;;6.00;77.63;101560.00;3979276;32;15024962;-76
2021/01/04 07:36:38;;;;;;;10.57;2.05;;;;;;;6.00;77.63;101560.00;4429848;32;20030;-74
2021/01/04 07:39:44;;;;;;;11.38;2.28;;;;;;;5.53;78.90;101540.41;4434589;32;20068;-74
2021/01/04 07:53:31;;;;;;;14.15;3.50;;;;;;;6.03;77.32;101561.22;3997881;31;15017556;-76
2021/01/04 08:15:53;;;;;;;16.73;3.60;;;;;;;5.76;79.36;101568.97;3990562;31;15014252;-75
2021/01/04 08:18:22;;;;;;;19.50;3.72;;;;;;;5.73;78.63;101564.16;4432486;32;20140;-75
2021/01/04 08:26:45;;;;;;;14.45;3.67;;;;;;;5.68;78.26;101574.88;3984025;32;15022729;-75
2021/01/04 08:29:36;;;;;;;16.08;3.20;;;;;;;5.51;78.94;101573.53;4435996;32;20084;-74
2021/01/04 08:32:41;;;;;;;23.20;4.32;;;;;;;5.51;78.88;101581.88;4432886;32;20106;-72
2021/01/04 08:35:12;;;;;;;16.13;3.10;;;;;;;5.66;78.87;101588.41;4427606;32;20033;-74
2021/01/04 08:37:41;;;;;;;16.85;3.12;;;;;;;5.73;77.75;101580.91;4427437;32;20045;-74
2021/01/04 08:40:29;;;;;;;12.30;2.92;;;;;;;5.67;77.50;101579.66;4426776;32;20036;-74
2021/01/04 08:43:10;;;;;;;16.67;4.00;;;;;;;5.62;77.35;101579.22;4427555;32;20072;-73
2021/01/04 08:45:45;;;;;;;19.58;3.67;;;;;;;5.64;77.41;101582.41;4427397;32;20053;-74
2021/01/04 08:51:07;;;;;;;14.55;4.43;;;;;;;5.74;77.03;101579.69;4000042;31;15019930;-75
2021/01/04 08:53:33;;;;;;;17.02;3.58;;;;;;;5.75;77.04;101589.72;4463678;32;20112;-73
2021/01/04 08:56:22;;;;;;;10.27;3.00;;;;;;;5.69;76.33;101590.44;4457269;32;20458;-74
2021/01/04 08:58:48;;;;;;;14.95;3.25;;;;;;;5.75;76.22;101597.28;4451277;32;20030;-75
2021/01/04 09:04:10;;;;;;;11.65;3.80;;;;;;;6.16;74.94;101610.00;3984536;32;15022114;-74
2021/01/04 09:06:41;;;;;;;17.70;3.95;;;;;;;6.16;74.94;101610.00;4436670;32;20413;-76
2021/01/04 09:12:17;;;;;;;13.82;3.62;;;;;;;5.75;75.92;101603.66;3990519;32;15027125;-75
2021/01/04 09:23:02;;;;;;;15.45;4.60;;;;;;;6.02;75.12;101613.50;3973580;32;15022884;-76
2021/01/04 09:26:00;;;;;;;14.30;3.83;;;;;;;5.85;75.30;101619.75;4423547;32;20421;-77
2021/01/04 09:28:35;;;;;;;14.05;2.92;;;;;;;5.93;75.15;101620.63;4421023;32;20461;-74
2021/01/04 09:31:01;;;;;;;14.70;3.23;;;;;;;6.03;74.88;101614.31;4421567;32;20153;-75
2021/01/04 09:33:26;;;;;;;24.15;3.15;;;;;;;6.00;74.79;101613.09;4420390;32;20375;-75
2021/01/04 09:36:02;;;;;;;15.02;3.80;;;;;;;6.14;74.69;101626.37;4410556;32;20116;-76
2021/01/04 09:38:28;;;;;;;19.40;3.37;;;;;;;6.22;73.64;101625.22;4411064;32;20353;-77
2021/01/04 09:40:57;;;;;;;18.92;3.67;;;;;;;6.27;73.81;101621.28;4408932;32;20144;-75
2021/01/04 09:43:26;;;;;;;12.98;3.37;;;;;;;6.20;73.71;101616.47;4410550;32;20070;-74
2021/01/04 09:46:06;;;;;;;17.55;4.35;;;;;;;6.20;74.54;101619.25;4411988;32;20031;-75
2021/01/04 09:48:45;;;;;;;12.73;2.83;;;;;;;6.28;74.19;101622.88;4410897;32;20133;-76
2021/01/04 09:51:17;;;;;;;12.30;2.58;;;;;;;6.26;73.75;101628.06;4413324;32;20037;-76
2021/01/04 09:53:56;;;;;;;12.37;3.95;;;;;;;6.28;74.49;101628.47;4419162;32;20124;-74
2021/01/04 09:56:28;;;;;;;15.98;3.50;;;;;;;6.31;74.42;101625.69;4417517;32;20129;-76
2021/01/04 09:59:05;;;;;;;15.80;3.00;;;;;;;6.54;74.74;101633.84;4410535;32;20061;-75
2021/01/04 10:01:40;;;;;;;16.30;3.10;;;;;;;6.75;74.31;101631.97;4398505;32;20033;-75
2021/01/04 10:04:07;;;;;;;12.45;2.95;;;;;;;7.04;75.05;101632.94;4406479;32;20308;-76
2021/01/04 10:06:34;;;;;;;11.27;3.00;;;;;;;6.99;73.54;101633.28;4408483;32;20062;-74
2021/01/04 10:09:05;;;;;;;17.70;2.95;;;;;;;7.02;73.77;101630.53;4413686;32;20031;-76
2021/01/04 10:11:31;;;;;;;13.82;3.37;;;;;;;7.35;73.53;101635.06;4412216;32;20042;-75
2021/01/04 10:14:06;;;;;;;13.18;3.45;;;;;;;7.38;72.39;101637.88;4411910;32;20026;-76
2021/01/04 10:16:37;;;;;;;17.48;3.37;;;;;;;7.37;71.92;101647.44;4409608;32;20072;-75
2021/01/04 10:19:11;;;;;;;9.38;2.53;;;;;;;7.26;71.80;101654.22;4409312;32;20160;-75
2021/01/04 10:24:40;;;;;;;9.80;2.20;;;;;;;7.08;73.71;101653.34;3981187;32;15024618;-74
2021/01/04 10:27:06;;;;;;;7.47;2.12;;;;;;;7.08;73.71;101653.34;4431693;32;20071;-76
2021/01/04 10:29:39;;;;;;;15.95;2.83;;;;;;;6.59;74.19;101647.50;4436920;32;20045;-74
2021/01/04 10:32:27;;;;;;;14.07;2.08;;;;;;;6.47;74.04;101651.38;4433187;32;20491;-75
2021/01/04 10:34:54;;;;;;;10.05;2.00;;;;;;;6.36;74.77;101646.91;4432113;32;20444;-76
2021/01/04 10:37:45;;;;;;;9.95;2.35;;;;;;;6.44;75.37;101645.78;4430503;32;20086;-75
2021/01/04 10:40:15;;;;;;;12.63;2.72;;;;;;;6.65;75.68;101651.50;4430544;32;20074;-74
2021/01/04 10:42:44;;;;;;;12.00;4.12;;;;;;;6.67;74.49;101651.91;4430943;32;20096;-73
2021/01/04 10:45:14;;;;;;;12.57;3.35;;;;;;;6.66;74.99;101647.53;4425662;32;20038;-74
2021/01/04 10:48:00;;;;;;;8.40;2.90;;;;;;;6.71;75.31;101655.53;4412332;32;20442;-74
2021/01/04 10:50:43;;;;;;;13.68;3.30;;;;;;;6.76;74.71;101643.97;4416330;32;20045;-73
2021/01/04 10:53:14;;;;;;;11.57;3.12;;;;;;;6.86;74.88;101648.81;4423600;32;20077;-73
2021/01/04 10:58:52;;;;;;;14.93;3.95;;;;;;;7.34;75.58;101639.84;3981812;32;15023390;-72
2021/01/04 11:01:21;;;;;;;12.57;3.55;;;;;;;7.34;75.58;101639.84;4437345;32;20052;-73
2021/01/04 11:03:53;;;;;;;16.58;4.57;;;;;;;6.79;75.91;101637.59;4441148;32;20064;-71
2021/01/04 11:06:23;;;;;;;14.63;3.72;;;;;;;6.82;76.06;101634.84;4425642;32;20117;-73
2021/01/04 11:08:49;;;;;;;13.10;3.20;;;;;;;6.66;76.56;101636.34;4435697;32;20045;-74
2021/01/04 11:14:06;;;;;;;11.10;3.05;;;;;;;6.57;76.15;101641.47;3984699;32;15024996;-75
2021/01/04 11:16:48;;;;;;;14.98;3.95;;;;;;;6.51;76.51;101635.44;4436153;32;20041;-75
2021/01/04 11:19:26;;;;;;;9.60;3.08;;;;;;;6.61;76.73;101634.72;4434425;32;20435;-74
2021/01/04 11:21:52;;;;;;;18.52;4.00;;;;;;;6.77;77.31;101623.19;4437552;32;20025;-74
2021/01/04 11:24:18;;;;;;;16.30;4.28;;;;;;;6.78;75.93;101619.22;4438405;32;20105;-74
2021/01/04 11:26:44;;;;;;;19.73;3.45;;;;;;;6.84;75.73;101623.25;4433743;32;20431;-73
2021/01/04 11:29:10;;;;;;;18.00;4.62;;;;;;;6.84;74.04;101617.66;4431663;32;20588;-72
2021/01/04 11:31:37;;;;;;;16.48;4.18;;;;;;;6.92;75.07;101617.28;4433006;32;20090;-72
2021/01/04 11:34:03;;;;;;;13.70;3.50;;;;;;;7.03;74.39;101609.72;4428390;32;20049;-74
2021/01/04 11:36:29;;;;;;;11.85;3.67;;;;;;;7.06;74.06;101608.94;4420724;32;20072;-73
2021/01/04 11:38:55;;;;;;;17.67;4.22;;;;;;;7.15;73.79;101603.78;4419552;32;20036;-73
2021/01/04 11:41:21;;;;;;;19.75;4.40;;;;;;;7.19;73.39;101601.81;4418561;32;20103;-76
2021/01/04 11:43:48;;;;;;;19.08;3.97;;;;;;;7.26;73.19;101598.22;4421742;32;20041;-72
2021/01/04 11:46:16;;;;;;;18.95;3.28;;;;;;;7.35;72.69;101596.66;4416808;32;20175;-75
2021/01/04 11:48:41;;;;;;;14.35;3.58;;;;;;;7.30;71.80;101601.84;4419742;32;20042;-74
2021/01/04 11:51:07;;;;;;;14.05;3.72;;;;;;;7.18;71.09;101597.41;4420691;32;20374;-74
2021/01/04 11:53:33;;;;;;;17.62;3.70;;;;;;;7.20;71.19;101597.00;4421671;32;20099;-73
2021/01/04 11:55:59;;;;;;;18.67;4.28;;;;;;;7.26;72.04;101593.44;4428506;32;20365;-72
2021/01/04 11:58:24;;;;;;;15.50;3.78;;;;;;;7.26;70.30;101595.41;4415354;32;20033;-74
2021/01/04 12:00:51;;;;;;;10.52;3.58;;;;;;;7.31;70.55;101593.06;4424344;32;20030;-75
2021/01/04 12:03:16;;;;;;;13.80;3.20;;;;;;;7.46;71.17;101591.88;4420647;32;20046;-75
2021/01/04 12:05:42;;;;;;;15.77;3.00;;;;;;;7.52;69.89;101592.31;4417784;32;20064;-73
2021/01/04 12:08:08;;;;;;;12.07;3.47;;;;;;;7.47;69.90;101587.09;4411181;32;20069;-73
2021/01/04 12:10:34;;;;;;;17.15;3.40;;;;;;;7.45;69.84;101592.25;4411935;32;20071;-73
2021/01/04 12:13:01;;;;;;;15.10;2.80;;;;;;;7.46;69.63;101591.09;4409474;32;20053;-72
2021/01/04 12:15:28;;;;;;;16.87;3.28;;;;;;;7.52;68.74;101575.50;4409039;32;20049;-73
2021/01/04 12:17:54;;;;;;;15.15;3.03;;;;;;;7.57;69.20;101589.09;4415135;32;21448;-75
2021/01/04 12:20:20;;;;;;;15.82;3.97;;;;;;;7.46;68.42;101572.25;4413400;32;20069;-74
2021/01/04 12:22:47;;;;;;;22.58;3.12;;;;;;;7.55;69.03;101581.09;4417027;32;20164;-74
2021/01/04 12:25:13;;;;;;;12.37;2.50;;;;;;;7.55;68.86;101577.50;4411534;32;20038;-75
2021/01/04 12:27:39;;;;;;;10.15;3.70;;;;;;;7.46;67.58;101575.06;4410879;32;20081;-75
2021/01/04 12:30:06;;;;;;;13.75;3.45;;;;;;;7.52;68.60;101573.47;4409654;32;20050;-75
2021/01/04 12:32:32;;;;;;;15.77;3.97;;;;;;;7.58;69.23;101565.50;4411155;32;20061;-74
2021/01/04 12:34:58;;;;;;;13.85;2.62;;;;;;;7.66;69.39;101565.09;4408223;32;20807;-74
2021/01/04 12:37:24;;;;;;;18.35;2.40;;;;;;;7.66;68.09;101559.50;4403840;32;20415;-74
2021/01/04 12:39:50;;;;;;;13.23;3.33;;;;;;;7.74;68.05;101552.69;4407955;32;20050;-72
2021/01/04 12:42:16;;;;;;;14.23;2.67;;;;;;;7.85;68.39;101556.31;4406795;32;20074;-75
2021/01/04 12:44:42;;;;;;;12.85;3.72;;;;;;;7.92;67.56;101558.31;4410196;32;20083;-75
2021/01/04 12:47:07;;;;;;;10.10;2.10;;;;;;;8.08;68.28;101558.69;4409088;32;20043;-72
2021/01/04 12:49:34;;;;;;;11.73;2.33;;;;;;;8.09;67.36;101543.47;4410419;32;20078;-74
2021/01/04 12:52:00;;;;;;;12.27;2.65;;;;;;;8.17;66.92;101557.06;4404852;32;20030;-74
2021/01/04 12:54:28;;;;;;;13.20;2.50;;;;;;;8.11;65.95;101541.06;4404899;32;20084;-74
2021/01/04 12:56:56;;;;;;;10.82;2.62;;;;;;;8.06;66.53;101547.88;4409103;32;20030;-73
2021/01/04 12:59:25;;;;;;;13.05;2.53;;;;;;;7.99;65.91;101541.50;4407522;32;20038;-74
2021/01/04 13:01:52;;;;;;;8.82;2.33;;;;;;;8.05;65.87;101553.91;4409125;32;20073;-73
2021/01/04 13:04:19;;;;;;;12.77;2.28;;;;;;;8.02;66.28;101537.88;4407385;32;20121;-73
2021/01/04 13:06:46;;;;;;;13.88;2.50;;;;;;;8.06;66.27;101539.47;4408032;32;20249;-74
2021/01/04 13:09:12;;;;;;;13.98;2.33;;;;;;;8.08;66.39;101530.66;4404429;32;20070;-75
2021/01/04 13:11:38;;;;;;;11.80;2.55;;;;;;;8.13;66.67;101531.06;4408352;32;20061;-75
2021/01/04 13:14:04;;;;;;;9.57;2.78;;;;;;;8.05;65.81;101525.88;4403822;32;20103;-75
2021/01/04 13:16:35;;;;;;;14.40;2.55;;;;;;;8.11;66.62;101519.44;4405894;32;20102;-75
2021/01/04 13:19:00;;;;;;;13.77;2.80;;;;;;;8.16;65.26;101518.22;4409915;32;20096;-73
2021/01/04 13:21:26;;;;;;;12.52;2.75;;;;;;;8.07;64.74;101515.84;4404736;32;20034;-74
2021/01/04 13:23:52;;;;;;;19.48;2.72;;;;;;;8.04;65.32;101510.25;4413994;32;20057;-74
2021/01/04 13:26:17;;;;;;;13.02;2.65;;;;;;;7.87;64.94;101522.28;4411919;32;20061;-76
2021/01/04 13:28:46;;;;;;;12.48;3.70;;;;;;;7.82;65.56;101525.47;4405484;32;20436;-73
2021/01/04 13:31:13;;;;;;;12.55;3.28;;;;;;;7.88;66.09;101521.06;4409423;32;20042;-74
2021/01/04 13:33:39;;;;;;;17.30;3.35;;;;;;;7.93;65.85;101523.47;4407546;32;20077;-74
2021/01/04 13:36:08;;;;;;;12.88;2.65;;;;;;;7.94;65.63;101523.06;4414569;32;20069;-75
2021/01/04 13:38:33;;;;;;;12.77;3.12;;;;;;;7.96;64.90;101511.47;4409597;32;20090;-75
2021/01/04 13:40:59;;;;;;;12.10;2.83;;;;;;;8.09;65.65;101515.44;4408972;32;20033;-74
2021/01/04 13:43:24;;;;;;;11.27;2.55;;;;;;;8.19;64.80;101512.63;4411221;32;20407;-75
2021/01/04 13:45:50;;;;;;;10.35;2.60;;;;;;;8.31;64.60;101508.59;4405290;32;20065;-76
2021/01/04 13:48:16;;;;;;;12.18;2.70;;;;;;;8.39;64.26;101512.19;4408356;32;20042;-75
2021/01/04 13:50:43;;;;;;;13.32;2.50;;;;;;;8.36;63.78;101504.59;4403078;32;20026;-77
2021/01/04 13:53:09;;;;;;;12.00;2.40;;;;;;;8.26;63.77;101499.81;4405614;32;20098;-77
2021/01/04 13:55:35;;;;;;;8.43;2.10;;;;;;;8.33;64.11;101511.81;4406231;32;20066;-73
2021/01/04 13:58:01;;;;;;;9.77;2.75;;;;;;;8.28;63.59;101505.84;4411795;32;20050;-76
2021/01/04 14:00:27;;;;;;;10.25;2.40;;;;;;;8.18;62.62;101493.41;4408334;32;20148;-75
2021/01/04 14:02:53;;;;;;;15.98;3.55;;;;;;;8.28;64.25;101497.41;4407316;32;20038;-75
2021/01/04 14:05:19;;;;;;;11.43;2.83;;;;;;;8.27;64.30;101507.81;4411579;32;20112;-75
2021/01/04 14:07:44;;;;;;;9.77;3.15;;;;;;;8.26;63.67;101495.03;4406675;32;20037;-77
2021/01/04 14:10:11;;;;;;;10.85;2.90;;;;;;;8.31;64.58;101505.03;4405631;32;20065;-76
2021/01/04 14:12:36;;;;;;;14.95;3.12;;;;;;;8.19;64.63;101497.78;4405226;32;20097;-73
2021/01/04 14:15:03;;;;;;;12.50;2.53;;;;;;;8.18;65.14;101508.22;4405423;32;20077;-76
2021/01/04 14:17:29;;;;;;;12.00;2.20;;;;;;;7.94;64.83;101506.25;4407772;32;20073;-74
2021/01/04 14:19:55;;;;;;;13.40;3.12;;;;;;;7.99;66.72;101521.87;4408823;32;20077;-74
2021/01/04 14:22:21;;;;;;;19.23;2.80;;;;;;;7.76;68.51;101525.06;4410109;32;20096;-75
2021/01/04 14:24:46;;;;;;;11.80;2.97;;;;;;;7.66;70.39;101530.69;4407229;32;20095;-73
2021/01/04 14:27:13;;;;;;;15.02;3.50;;;;;;;7.33;71.95;101523.44;4407087;32;20065;-73
2021/01/04 14:29:40;;;;;;;9.13;2.00;;;;;;;7.29;72.25;101535.84;4404683;32;20118;-74
2021/01/04 14:32:09;;;;;;;16.52;2.30;;;;;;;7.10;72.14;101531.41;4407604;32;20083;-75
2021/01/04 14:34:34;;;;;;;8.80;2.00;;;;;;;7.06;73.86;101524.97;4409070;32;20042;-72
2021/01/04 14:37:00;;;;;;;10.43;2.33;;;;;;;6.91;73.83;101526.16;4412024;32;20456;-74
2021/01/04 14:39:26;;;;;;;14.07;2.47;;;;;;;6.80;73.58;101530.91;4404747;32;20095;-73
2021/01/04 14:42:08;;;;;;;13.18;2.70;;;;;;;6.77;74.42;101520.50;4410677;32;20025;-74
2021/01/04 14:44:35;;;;;;;15.18;2.92;;;;;;;6.81;74.70;101518.50;4407494;32;20041;-76
2021/01/04 14:47:05;;;;;;;14.05;2.33;;;;;;;6.81;74.75;101520.53;4403080;32;20094;-74
2021/01/04 14:49:31;;;;;;;11.95;3.92;;;;;;;6.83;74.85;101523.72;4407518;32;20042;-71
2021/01/04 14:51:57;;;;;;;12.48;2.83;;;;;;;6.70;74.63;101537.25;4409633;32;20071;-75
2021/01/04 14:54:27;;;;;;;13.32;2.65;;;;;;;6.60;76.49;101538.00;4406913;32;20132;-75
2021/01/04 14:56:55;;;;;;;10.02;3.20;;;;;;;6.59;77.94;101533.59;4407355;32;20034;-77
2021/01/04 14:59:23;;;;;;;16.80;2.92;;;;;;;6.38;78.68;101524.31;4405060;32;20069;-75
2021/01/04 15:01:48;;;;;;;20.92;5.10;;;;;;;6.29;79.12;101535.84;4408524;32;20094;-75
2021/01/04 15:04:17;;;;;;;20.48;5.28;;;;;;;6.12;79.01;101542.13;4406097;32;20061;-74
2021/01/04 15:06:43;;;;;;;22.33;6.95;;;;;;;6.07;80.12;101542.47;4407971;32;20049;-73
2021/01/04 15:09:12;;;;;;;26.30;7.10;;;;;;;6.05;80.67;101534.50;4408863;32;20074;-73
2021/01/04 15:11:42;;;;;;;23.83;7.18;;;;;;;6.09;81.12;101538.13;4405715;32;20238;-74
2021/01/04 15:14:07;;;;;;;17.45;6.37;;;;;;;6.02;81.34;101543.62;4406901;32;20104;-76
2021/01/04 15:16:40;;;;;;;20.48;5.90;;;;;;;6.10;81.63;101536.13;4407762;32;20080;-76
2021/01/04 15:19:06;;;;;;;17.27;6.65;;;;;;;6.12;81.60;101534.56;4407520;32;20033;-75
2021/01/04 15:21:31;;;;;;;27.48;10.05;;;;;;;6.21;82.04;101539.78;4409171;32;20053;-73
2021/01/04 15:23:57;;;;;;;17.45;5.95;;;;;;;6.30;81.96;101540.25;4407914;32;20486;-75
2021/01/04 15:26:23;;;;;;;17.58;4.85;;;;;;;6.34;81.88;101529.88;4407808;32;20023;-72
2021/01/04 15:28:48;;;;;;;14.70;3.47;;;;;;;6.33;81.28;101535.88;4408326;32;20109;-72
2021/01/04 15:31:14;;;;;;;14.50;4.45;;;;;;;6.15;79.98;101541.34;4416179;32;20175;-73
2021/01/04 15:33:40;;;;;;;11.25;2.87;;;;;;;6.23;80.61;101537.41;4408707;32;20038;-74
2021/01/04 15:36:08;;;;;;;16.27;3.60;;;;;;;6.28;80.88;101534.25;4407966;32;20451;-73
2021/01/04 15:38:34;;;;;;;17.48;3.47;;;;;;;6.36;79.96;101537.88;4416112;32;20099;-73
2021/01/04 15:40:59;;;;;;;12.43;2.80;;;;;;;6.30;78.68;101543.03;4410628;32;20070;-72
2021/01/04 15:43:25;;;;;;;14.63;2.90;;;;;;;6.38;78.83;101547.47;4413230;32;20489;-76
2021/01/04 15:45:51;;;;;;;15.90;2.92;;;;;;;6.37;78.68;101545.06;4413062;32;20022;-75
2021/01/04 15:48:17;;;;;;;15.80;2.35;;;;;;;6.36;77.18;101546.25;4415773;32;20049;-72
2021/01/04 15:50:43;;;;;;;10.18;3.08;;;;;;;6.29;77.63;101549.81;4413376;32;20091;-74
2021/01/04 15:53:09;;;;;;;10.02;2.10;;;;;;;6.18;77.22;101546.16;4418208;32;20073;-75
2021/01/04 15:55:34;;;;;;;12.50;2.62;;;;;;;6.18;76.78;101548.16;4415448;32;20095;-76